sensor_id;sensor_type;location;lat;lon;timestamp;pressure;altitude;pressure_sealevel;temperature;humidity
2785;BME280;57944;48.722;9.316;2023-12-22T00:01:07;96795.22;;;5.80;100.00
2785;BME280;57944;48.722;9.316;2023-12-22T00:03:39;96795.41;;;5.78;100.00
2785;BME280;57944;48.722;9.316;2023-12-22T00:06:10;96788.59;;;5.79;100.00
2785;BME280;57944;48.722;9.316;2023-12-22T00:08:41;96798.91;;;5.84;100.00
2785;BME280;57944;48.722;9.316;2023-12-22T00:11:13;96777.16;;;5.83;100.00
2785;BME280;57944;48.722;9.316;2023-12-22T00:13:43;96763.75;;;5.89;100.00
2785;BME280;57944;48.722;9.316;2023-12-22T00:16:17;96783.03;;;5.97;100.00
2785;BME280;57944;48.722;9.316;2023-12-22T00:18:48;96781.09;;;6.06;100.00
2785;BME280;57944;48.722;9.316;2023-12-22T00:21:20;96786.19;;;6.19;100.00
2785;BME280;57944;48.722;9.316;2023-12-22T00:23:51;96767.13;;;6.23;100.00
2785;BME280;57944;48.722;9.316;2023-12-22T00:26:24;96772.94;;;6.23;100.00
2785;BME280;57944;48.722;9.316;2023-12-22T00:28:55;96762.47;;;6.33;100.00
2785;BME280;57944;48.722;9.316;2023-12-22T00:31:28;96771.22;;;6.44;100.00
2785;BME280;57944;48.722;9.316;2023-12-22T00:33:59;96776.84;;;6.39;100.00
2785;BME280;57944;48.722;9.316;2023-12-22T00:36:29;96773.34;;;6.40;100.00
2785;BME280;57944;48.722;9.316;2023-12-22T00:39:00;96778.81;;;6.44;100.00
2785;BME280;57944;48.722;9.316;2023-12-22T00:41:31;96791.66;;;6.56;100.00
2785;BME280;57944;48.722;9.316;2023-12-22T00:44:02;96781.91;;;6.53;100.00
2785;BME280;57944;48.722;9.316;2023-12-22T00:46:36;96801.97;;;6.47;100.00
2785;BME280;57944;48.722;9.316;2023-12-22T00:49:07;96816.56;;;6.45;100.00
2785;BME280;57944;48.722;9.316;2023-12-22T00:51:38;96839.34;;;6.39;100.00
2785;BME280;57944;48.722;9.316;2023-12-22T00:54:09;96850.00;;;6.14;100.00
2785;BME280;57944;48.722;9.316;2023-12-22T00:56:40;96848.03;;;6.10;100.00
2785;BME280;57944;48.722;9.316;2023-12-22T00:59:11;96847.81;;;5.98;100.00
2785;BME280;57944;48.722;9.316;2023-12-22T01:01:45;96848.78;;;5.97;100.00
2785;BME280;57944;48.722;9.316;2023-12-22T01:04:15;96854.94;;;5.88;100.00
2785;BME280;57944;48.722;9.316;2023-12-22T01:06:46;96846.78;;;5.92;100.00
2785;BME280;57944;48.722;9.316;2023-12-22T01:09:17;96859.22;;;5.87;100.00
2785;BME280;57944;48.722;9.316;2023-12-22T01:11:48;96838.44;;;5.92;100.00
2785;BME280;57944;48.722;9.316;2023-12-22T01:14:18;96824.25;;;5.91;100.00
2785;BME280;57944;48.722;9.316;2023-12-22T01:16:52;96825.97;;;5.90;100.00
2785;BME280;57944;48.722;9.316;2023-12-22T01:19:23;96818.38;;;5.90;100.00
2785;BME280;57944;48.722;9.316;2023-12-22T01:21:54;96814.47;;;5.88;100.00
2785;BME280;57944;48.722;9.316;2023-12-22T01:24:25;96817.22;;;5.86;100.00
2785;BME280;57944;48.722;9.316;2023-12-22T01:30:19;96806.28;;;5.79;100.00
2785;BME280;57944;48.722;9.316;2023-12-22T01:32:52;96801.44;;;5.77;100.00
2785;BME280;57944;48.722;9.316;2023-12-22T01:35:23;96811.56;;;5.84;100.00
2785;BME280;57944;48.722;9.316;2023-12-22T01:37:53;96813.31;;;5.90;100.00
2785;BME280;57944;48.722;9.316;2023-12-22T01:40:24;96817.00;;;5.88;100.00
2785;BME280;57944;48.722;9.316;2023-12-22T01:42:55;96826.22;;;5.95;100.00
2785;BME280;57944;48.722;9.316;2023-12-22T01:45:26;96844.44;;;5.84;100.00
2785;BME280;57944;48.722;9.316;2023-12-22T01:48:00;96837.13;;;6.02;100.00
2785;BME280;57944;48.722;9.316;2023-12-22T01:50:31;96840.25;;;6.11;100.00
2785;BME280;57944;48.722;9.316;2023-12-22T01:53:04;96844.16;;;6.14;100.00
2785;BME280;57944;48.722;9.316;2023-12-22T01:55:35;96846.31;;;6.23;100.00
2785;BME280;57944;48.722;9.316;2023-12-22T01:58:06;96838.16;;;6.48;100.00
2785;BME280;57944;48.722;9.316;2023-12-22T02:00:37;96835.06;;;6.53;100.00
2785;BME280;57944;48.722;9.316;2023-12-22T02:03:11;96866.81;;;6.62;100.00
2785;BME280;57944;48.722;9.316;2023-12-22T02:05:43;96867.19;;;6.59;100.00
2785;BME280;57944;48.722;9.316;2023-12-22T02:08:16;96865.47;;;6.66;100.00
2785;BME280;57944;48.722;9.316;2023-12-22T02:10:49;96876.16;;;6.68;100.00
2785;BME280;57944;48.722;9.316;2023-12-22T02:13:20;96865.81;;;6.63;100.00
2785;BME280;57944;48.722;9.316;2023-12-22T02:15:55;96874.59;;;6.67;100.00
2785;BME280;57944;48.722;9.316;2023-12-22T02:18:35;96869.53;;;6.67;100.00
2785;BME280;57944;48.722;9.316;2023-12-22T02:21:09;96871.47;;;6.65;100.00
2785;BME280;57944;48.722;9.316;2023-12-22T02:23:43;96869.75;;;6.72;100.00
2785;BME280;57944;48.722;9.316;2023-12-22T02:26:27;96879.47;;;6.75;100.00
2785;BME280;57944;48.722;9.316;2023-12-22T02:28:59;96867.22;;;6.72;100.00
2785;BME280;57944;48.722;9.316;2023-12-22T02:31:36;96879.28;;;6.70;100.00
2785;BME280;57944;48.722;9.316;2023-12-22T02:34:15;96882.00;;;6.82;100.00
2785;BME280;57944;48.722;9.316;2023-12-22T02:36:49;96885.13;;;6.77;100.00
2785;BME280;57944;48.722;9.316;2023-12-22T02:39:25;96878.88;;;6.73;100.00
2785;BME280;57944;48.722;9.316;2023-12-22T02:41:59;96879.88;;;6.72;100.00
2785;BME280;57944;48.722;9.316;2023-12-22T02:44:30;96883.38;;;6.91;100.00
2785;BME280;57944;48.722;9.316;2023-12-22T02:47:02;96884.53;;;6.82;100.00
2785;BME280;57944;48.722;9.316;2023-12-22T02:49:32;96870.31;;;6.87;100.00
2785;BME280;57944;48.722;9.316;2023-12-22T02:52:04;96867.78;;;6.87;100.00
2785;BME280;57944;48.722;9.316;2023-12-22T02:54:44;96881.22;;;6.81;100.00
2785;BME280;57944;48.722;9.316;2023-12-22T02:57:14;96855.13;;;6.81;100.00
2785;BME280;57944;48.722;9.316;2023-12-22T02:59:48;96858.22;;;6.76;100.00
2785;BME280;57944;48.722;9.316;2023-12-22T03:02:19;96870.31;;;6.74;100.00
2785;BME280;57944;48.722;9.316;2023-12-22T03:04:49;96861.94;;;6.80;100.00
2785;BME280;57944;48.722;9.316;2023-12-22T03:07:20;96871.69;;;6.83;100.00
2785;BME280;57944;48.722;9.316;2023-12-22T03:09:53;96878.88;;;6.86;100.00
2785;BME280;57944;48.722;9.316;2023-12-22T03:12:23;96862.72;;;6.94;100.00
2785;BME280;57944;48.722;9.316;2023-12-22T03:14:52;96861.56;;;6.97;100.00
2785;BME280;57944;48.722;9.316;2023-12-22T03:17:22;96854.72;;;6.90;100.00
2785;BME280;57944;48.722;9.316;2023-12-22T03:19:53;96849.66;;;6.97;100.00
2785;BME280;57944;48.722;9.316;2023-12-22T03:22:23;96858.38;;;7.28;100.00
2785;BME280;57944;48.722;9.316;2023-12-22T03:24:57;96868.72;;;7.20;100.00
2785;BME280;57944;48.722;9.316;2023-12-22T03:27:27;96870.22;;;7.60;100.00
2785;BME280;57944;48.722;9.316;2023-12-22T03:29:58;96875.63;;;7.77;100.00
2785;BME280;57944;48.722;9.316;2023-12-22T03:32:29;96870.25;;;7.47;100.00
2785;BME280;57944;48.722;9.316;2023-12-22T03:35:00;96888.97;;;7.39;100.00
2785;BME280;57944;48.722;9.316;2023-12-22T03:37:31;96897.94;;;7.42;100.00
2785;BME280;57944;48.722;9.316;2023-12-22T03:40:05;96893.63;;;7.56;100.00
2785;BME280;57944;48.722;9.316;2023-12-22T03:42:37;96890.13;;;7.50;100.00
2785;BME280;57944;48.722;9.316;2023-12-22T03:45:08;96894.44;;;7.36;100.00
2785;BME280;57944;48.722;9.316;2023-12-22T03:47:39;96903.81;;;7.36;100.00
2785;BME280;57944;48.722;9.316;2023-12-22T03:50:10;96897.56;;;7.32;100.00
2785;BME280;57944;48.722;9.316;2023-12-22T03:52:40;96914.34;;;7.20;100.00
2785;BME280;57944;48.722;9.316;2023-12-22T03:55:14;96909.63;;;7.30;100.00
2785;BME280;57944;48.722;9.316;2023-12-22T03:57:45;96906.31;;;7.43;100.00
2785;BME280;57944;48.722;9.316;2023-12-22T04:00:17;96907.91;;;7.24;100.00
2785;BME280;57944;48.722;9.316;2023-12-22T04:02:48;96926.03;;;6.94;100.00
2785;BME280;57944;48.722;9.316;2023-12-22T04:05:19;96921.22;;;6.18;100.00
2785;BME280;57944;48.722;9.316;2023-12-22T04:07:49;96925.56;;;5.89;100.00
2785;BME280;57944;48.722;9.316;2023-12-22T04:10:22;96913.97;;;5.67;100.00
2785;BME280;57944;48.722;9.316;2023-12-22T04:12:53;96918.56;;;5.56;100.00
2785;BME280;57944;48.722;9.316;2023-12-22T04:15:24;96916.28;;;5.62;100.00
2785;BME280;57944;48.722;9.316;2023-12-22T04:17:54;96913.78;;;5.68;100.00
2785;BME280;57944;48.722;9.316;2023-12-22T04:20:25;96916.69;;;5.65;100.00
2785;BME280;57944;48.722;9.316;2023-12-22T04:22:55;96899.78;;;5.66;100.00
2785;BME280;57944;48.722;9.316;2023-12-22T04:25:29;96905.16;;;5.56;100.00
2785;BME280;57944;48.722;9.316;2023-12-22T04:27:59;96897.22;;;5.59;100.00
2785;BME280;57944;48.722;9.316;2023-12-22T04:30:30;96890.56;;;5.51;100.00
2785;BME280;57944;48.722;9.316;2023-12-22T04:33:01;96905.00;;;5.57;100.00
2785;BME280;57944;48.722;9.316;2023-12-22T04:35:31;96917.03;;;5.55;100.00
2785;BME280;57944;48.722;9.316;2023-12-22T04:38:02;96912.34;;;5.52;100.00
2785;BME280;57944;48.722;9.316;2023-12-22T04:40:35;96916.66;;;5.58;100.00
2785;BME280;57944;48.722;9.316;2023-12-22T04:43:06;96908.16;;;5.66;100.00
2785;BME280;57944;48.722;9.316;2023-12-22T04:45:36;96933.53;;;5.93;100.00
2785;BME280;57944;48.722;9.316;2023-12-22T04:48:07;96926.41;;;5.96;100.00
2785;BME280;57944;48.722;9.316;2023-12-22T04:50:38;96958.19;;;5.84;100.00
2785;BME280;57944;48.722;9.316;2023-12-22T04:53:08;96955.91;;;5.89;100.00
2785;BME280;57944;48.722;9.316;2023-12-22T04:55:42;96944.31;;;6.01;100.00
2785;BME280;57944;48.722;9.316;2023-12-22T04:58:12;96953.03;;;5.99;100.00
2785;BME280;57944;48.722;9.316;2023-12-22T05:00:43;96946.47;;;6.04;100.00
2785;BME280;57944;48.722;9.316;2023-12-22T05:03:13;96954.09;;;6.18;100.00
2785;BME280;57944;48.722;9.316;2023-12-22T05:05:44;96955.69;;;6.19;100.00
2785;BME280;57944;48.722;9.316;2023-12-22T05:08:14;96943.03;;;6.25;100.00
2785;BME280;57944;48.722;9.316;2023-12-22T05:10:48;96946.56;;;6.31;100.00
2785;BME280;57944;48.722;9.316;2023-12-22T05:13:18;96939.19;;;6.36;100.00
2785;BME280;57944;48.722;9.316;2023-12-22T05:15:49;96952.81;;;6.35;100.00
2785;BME280;57944;48.722;9.316;2023-12-22T05:18:20;96949.72;;;6.46;100.00
2785;BME280;57944;48.722;9.316;2023-12-22T05:20:51;96945.44;;;6.54;100.00
2785;BME280;57944;48.722;9.316;2023-12-22T05:23:21;96955.41;;;6.55;100.00
2785;BME280;57944;48.722;9.316;2023-12-22T05:25:55;96957.34;;;6.60;100.00
2785;BME280;57944;48.722;9.316;2023-12-22T05:28:25;96963.81;;;6.69;100.00
2785;BME280;57944;48.722;9.316;2023-12-22T05:30:56;96961.09;;;6.77;100.00
2785;BME280;57944;48.722;9.316;2023-12-22T05:33:26;96965.75;;;6.87;100.00
2785;BME280;57944;48.722;9.316;2023-12-22T05:35:57;96951.75;;;6.84;100.00
2785;BME280;57944;48.722;9.316;2023-12-22T05:38:27;96962.63;;;6.85;100.00
2785;BME280;57944;48.722;9.316;2023-12-22T05:41:01;96968.44;;;6.59;100.00
2785;BME280;57944;48.722;9.316;2023-12-22T05:43:31;96975.53;;;6.22;100.00
2785;BME280;57944;48.722;9.316;2023-12-22T05:46:02;96973.69;;;6.02;100.00
2785;BME280;57944;48.722;9.316;2023-12-22T05:48:34;96977.94;;;5.95;100.00
2785;BME280;57944;48.722;9.316;2023-12-22T05:51:05;96987.13;;;5.75;100.00
2785;BME280;57944;48.722;9.316;2023-12-22T05:53:41;96992.78;;;5.77;100.00
2785;BME280;57944;48.722;9.316;2023-12-22T05:56:20;97000.81;;;5.87;100.00
2785;BME280;57944;48.722;9.316;2023-12-22T05:58:51;96992.19;;;5.75;100.00
2785;BME280;57944;48.722;9.316;2023-12-22T06:01:22;96988.31;;;5.79;100.00
2785;BME280;57944;48.722;9.316;2023-12-22T06:03:53;96990.25;;;5.77;100.00
2785;BME280;57944;48.722;9.316;2023-12-22T06:06:24;96992.22;;;5.81;100.00
2785;BME280;57944;48.722;9.316;2023-12-22T06:08:55;96979.03;;;5.86;100.00
2785;BME280;57944;48.722;9.316;2023-12-22T06:11:28;96978.91;;;5.94;100.00
2785;BME280;57944;48.722;9.316;2023-12-22T06:13:59;97019.31;;;6.22;100.00
2785;BME280;57944;48.722;9.316;2023-12-22T06:16:30;96997.66;;;6.61;100.00
2785;BME280;57944;48.722;9.316;2023-12-22T06:19:00;97018.34;;;6.78;100.00
2785;BME280;57944;48.722;9.316;2023-12-22T06:21:31;97001.81;;;6.89;100.00
2785;BME280;57944;48.722;9.316;2023-12-22T06:24:02;97005.72;;;6.91;100.00
2785;BME280;57944;48.722;9.316;2023-12-22T06:26:35;97012.94;;;7.01;100.00
2785;BME280;57944;48.722;9.316;2023-12-22T06:29:05;97010.00;;;6.98;100.00
2785;BME280;57944;48.722;9.316;2023-12-22T06:31:37;97023.28;;;7.00;100.00
2785;BME280;57944;48.722;9.316;2023-12-22T06:34:07;97034.56;;;6.97;100.00
2785;BME280;57944;48.722;9.316;2023-12-22T06:36:38;97065.75;;;7.04;100.00
2785;BME280;57944;48.722;9.316;2023-12-22T06:39:09;97061.88;;;7.08;100.00
2785;BME280;57944;48.722;9.316;2023-12-22T06:41:42;97065.75;;;7.04;100.00
2785;BME280;57944;48.722;9.316;2023-12-22T06:44:12;97043.34;;;7.14;100.00
2785;BME280;57944;48.722;9.316;2023-12-22T06:46:43;97066.38;;;7.20;100.00
2785;BME280;57944;48.722;9.316;2023-12-22T06:49:14;97064.78;;;7.12;100.00
2785;BME280;57944;48.722;9.316;2023-12-22T06:51:45;97053.88;;;7.18;100.00
2785;BME280;57944;48.722;9.316;2023-12-22T06:54:15;97047.66;;;7.14;100.00
2785;BME280;57944;48.722;9.316;2023-12-22T06:56:49;97057.19;;;7.12;100.00
2785;BME280;57944;48.722;9.316;2023-12-22T06:59:19;97056.81;;;7.15;100.00
2785;BME280;57944;48.722;9.316;2023-12-22T07:01:51;97066.75;;;7.23;100.00
2785;BME280;57944;48.722;9.316;2023-12-22T07:05:05;97061.09;;;7.21;100.00
2785;BME280;57944;48.722;9.316;2023-12-22T07:07:55;97065.56;;;7.06;100.00
2785;BME280;57944;48.722;9.316;2023-12-22T07:10:25;97068.28;;;6.98;100.00
2785;BME280;57944;48.722;9.316;2023-12-22T07:12:59;97064.91;;;6.84;100.00
2785;BME280;57944;48.722;9.316;2023-12-22T07:15:29;97077.91;;;6.74;100.00
2785;BME280;57944;48.722;9.316;2023-12-22T07:18:00;97065.69;;;6.84;100.00
2785;BME280;57944;48.722;9.316;2023-12-22T07:20:31;97076.00;;;6.76;100.00
2785;BME280;57944;48.722;9.316;2023-12-22T07:23:01;97076.59;;;6.78;100.00
2785;BME280;57944;48.722;9.316;2023-12-22T07:25:36;97096.47;;;6.81;100.00
2785;BME280;57944;48.722;9.316;2023-12-22T07:28:09;97113.97;;;6.76;100.00
2785;BME280;57944;48.722;9.316;2023-12-22T07:30:40;97107.44;;;6.54;100.00
2785;BME280;57944;48.722;9.316;2023-12-22T07:33:10;97119.16;;;6.26;100.00
2785;BME280;57944;48.722;9.316;2023-12-22T07:35:41;97119.88;;;6.14;100.00
2785;BME280;57944;48.722;9.316;2023-12-22T07:38:12;97123.16;;;6.08;100.00
2785;BME280;57944;48.722;9.316;2023-12-22T07:40:43;97106.00;;;6.10;100.00
2785;BME280;57944;48.722;9.316;2023-12-22T07:43:16;97109.34;;;6.10;100.00
2785;BME280;57944;48.722;9.316;2023-12-22T07:45:47;97117.59;;;6.25;100.00
2785;BME280;57944;48.722;9.316;2023-12-22T07:48:20;97119.84;;;6.42;100.00
2785;BME280;57944;48.722;9.316;2023-12-22T07:50:52;97125.91;;;6.47;100.00
2785;BME280;57944;48.722;9.316;2023-12-22T07:53:22;97128.00;;;6.37;100.00
2785;BME280;57944;48.722;9.316;2023-12-22T07:55:53;97114.78;;;6.42;100.00
2785;BME280;57944;48.722;9.316;2023-12-22T07:58:29;97112.03;;;6.37;100.00
2785;BME280;57944;48.722;9.316;2023-12-22T08:01:00;97103.06;;;6.34;100.00
2785;BME280;57944;48.722;9.316;2023-12-22T08:03:30;97109.28;;;6.32;100.00
2785;BME280;57944;48.722;9.316;2023-12-22T08:06:01;97102.16;;;6.14;100.00
2785;BME280;57944;48.722;9.316;2023-12-22T08:08:34;97109.50;;;6.02;100.00
2785;BME280;57944;48.722;9.316;2023-12-22T08:11:04;97096.66;;;5.82;100.00
2785;BME280;57944;48.722;9.316;2023-12-22T08:13:38;97111.94;;;5.74;100.00
2785;BME280;57944;48.722;9.316;2023-12-22T08:23:07;97116.06;;;5.53;100.00
2785;BME280;57944;48.722;9.316;2023-12-22T08:25:41;97115.69;;;5.56;100.00
2785;BME280;57944;48.722;9.316;2023-12-22T08:28:13;97116.91;;;5.60;100.00
2785;BME280;57944;48.722;9.316;2023-12-22T08:30:46;97113.94;;;5.57;100.00
2785;BME280;57944;48.722;9.316;2023-12-22T08:33:17;97111.41;;;5.57;100.00
2785;BME280;57944;48.722;9.316;2023-12-22T08:35:48;97131.47;;;5.58;100.00
2785;BME280;57944;48.722;9.316;2023-12-22T08:38:18;97137.53;;;5.64;100.00
2785;BME280;57944;48.722;9.316;2023-12-22T08:40:49;97111.91;;;5.67;100.00
2785;BME280;57944;48.722;9.316;2023-12-22T08:43:21;97114.44;;;5.67;100.00
2785;BME280;57944;48.722;9.316;2023-12-22T08:45:54;97111.81;;;5.82;100.00
2785;BME280;57944;48.722;9.316;2023-12-22T08:48:25;97128.09;;;5.94;100.00
2785;BME280;57944;48.722;9.316;2023-12-22T08:50:56;97102.06;;;6.00;100.00
2785;BME280;57944;48.722;9.316;2023-12-22T08:53:26;97112.22;;;6.07;100.00
2785;BME280;57944;48.722;9.316;2023-12-22T08:55:57;97126.25;;;6.10;100.00
2785;BME280;57944;48.722;9.316;2023-12-22T08:58:28;97126.69;;;6.13;100.00
2785;BME280;57944;48.722;9.316;2023-12-22T09:01:02;97118.59;;;6.24;100.00
2785;BME280;57944;48.722;9.316;2023-12-22T09:03:35;97129.63;;;6.17;100.00
2785;BME280;57944;48.722;9.316;2023-12-22T09:06:11;97145.78;;;6.16;100.00
2785;BME280;57944;48.722;9.316;2023-12-22T09:08:42;97156.47;;;6.18;100.00
2785;BME280;57944;48.722;9.316;2023-12-22T09:11:13;97146.97;;;6.20;100.00
2785;BME280;57944;48.722;9.316;2023-12-22T09:13:45;97154.56;;;6.20;100.00
2785;BME280;57944;48.722;9.316;2023-12-22T09:16:21;97144.25;;;6.21;100.00
2785;BME280;57944;48.722;9.316;2023-12-22T09:18:53;97154.38;;;6.21;100.00
2785;BME280;57944;48.722;9.316;2023-12-22T09:21:24;97146.34;;;6.18;100.00
2785;BME280;57944;48.722;9.316;2023-12-22T09:23:54;97148.13;;;6.24;100.00
2785;BME280;57944;48.722;9.316;2023-12-22T09:26:25;97151.28;;;6.26;100.00
2785;BME280;57944;48.722;9.316;2023-12-22T09:28:56;97150.53;;;6.32;100.00
2785;BME280;57944;48.722;9.316;2023-12-22T09:31:29;97162.66;;;6.43;100.00
2785;BME280;57944;48.722;9.316;2023-12-22T09:34:00;97165.72;;;6.60;100.00
2785;BME280;57944;48.722;9.316;2023-12-22T09:36:31;97185.25;;;6.73;100.00
2785;BME280;57944;48.722;9.316;2023-12-22T09:39:02;97176.38;;;6.90;100.00
2785;BME280;57944;48.722;9.316;2023-12-22T09:41:32;97185.78;;;7.03;100.00
2785;BME280;57944;48.722;9.316;2023-12-22T09:44:04;97183.28;;;7.10;100.00
2785;BME280;57944;48.722;9.316;2023-12-22T09:46:39;97188.00;;;7.20;100.00
2785;BME280;57944;48.722;9.316;2023-12-22T09:49:10;97200.47;;;7.21;100.00
2785;BME280;57944;48.722;9.316;2023-12-22T09:51:43;97204.19;;;7.25;100.00
2785;BME280;57944;48.722;9.316;2023-12-22T09:54:15;97200.91;;;7.38;100.00
2785;BME280;57944;48.722;9.316;2023-12-22T09:56:47;97183.97;;;7.38;100.00
2785;BME280;57944;48.722;9.316;2023-12-22T09:59:18;97197.03;;;7.42;100.00
2785;BME280;57944;48.722;9.316;2023-12-22T10:01:53;97190.59;;;7.46;100.00
2785;BME280;57944;48.722;9.316;2023-12-22T10:04:25;97200.34;;;7.43;100.00
2785;BME280;57944;48.722;9.316;2023-12-22T10:06:58;97190.41;;;7.48;100.00
2785;BME280;57944;48.722;9.316;2023-12-22T10:09:32;97181.66;;;7.50;100.00
2785;BME280;57944;48.722;9.316;2023-12-22T10:12:04;97192.00;;;7.55;100.00
2785;BME280;57944;48.722;9.316;2023-12-22T10:14:35;97180.66;;;7.51;100.00
2785;BME280;57944;48.722;9.316;2023-12-22T10:17:10;97176.41;;;7.58;100.00
2785;BME280;57944;48.722;9.316;2023-12-22T10:19:40;97179.13;;;7.57;100.00
2785;BME280;57944;48.722;9.316;2023-12-22T10:22:11;97154.94;;;7.74;100.00
2785;BME280;57944;48.722;9.316;2023-12-22T10:24:43;97136.25;;;7.75;100.00
2785;BME280;57944;48.722;9.316;2023-12-22T10:27:15;97144.44;;;7.84;100.00
2785;BME280;57944;48.722;9.316;2023-12-22T10:29:50;97127.28;;;7.93;100.00
2785;BME280;57944;48.722;9.316;2023-12-22T10:32:24;97130.56;;;7.93;100.00
2785;BME280;57944;48.722;9.316;2023-12-22T10:34:55;97116.31;;;7.99;100.00
2785;BME280;57944;48.722;9.316;2023-12-22T10:37:26;97121.00;;;8.02;100.00
2785;BME280;57944;48.722;9.316;2023-12-22T10:39:57;97109.88;;;7.96;100.00
2785;BME280;57944;48.722;9.316;2023-12-22T10:42:27;97117.13;;;7.93;100.00
2785;BME280;57944;48.722;9.316;2023-12-22T10:44:58;97107.75;;;7.73;100.00
2785;BME280;57944;48.722;9.316;2023-12-22T10:47:32;97114.59;;;7.66;100.00
2785;BME280;57944;48.722;9.316;2023-12-22T10:50:03;97099.75;;;7.63;100.00
2785;BME280;57944;48.722;9.316;2023-12-22T10:52:34;97096.81;;;7.79;100.00
2785;BME280;57944;48.722;9.316;2023-12-22T10:55:06;97103.44;;;7.94;100.00
2785;BME280;57944;48.722;9.316;2023-12-22T10:57:36;97085.53;;;7.89;100.00
2785;BME280;57944;48.722;9.316;2023-12-22T11:00:09;97080.25;;;7.83;100.00
2785;BME280;57944;48.722;9.316;2023-12-22T11:02:43;97091.19;;;7.77;100.00
2785;BME280;57944;48.722;9.316;2023-12-22T11:05:19;97088.47;;;7.86;100.00
2785;BME280;57944;48.722;9.316;2023-12-22T11:07:55;97076.16;;;7.69;100.00
2785;BME280;57944;48.722;9.316;2023-12-22T11:10:31;97091.56;;;7.61;100.00
2785;BME280;57944;48.722;9.316;2023-12-22T11:13:03;97087.09;;;7.50;100.00
2785;BME280;57944;48.722;9.316;2023-12-22T11:15:35;97064.03;;;7.38;100.00
2785;BME280;57944;48.722;9.316;2023-12-22T11:18:09;97067.94;;;7.27;100.00
2785;BME280;57944;48.722;9.316;2023-12-22T11:20:40;97065.19;;;7.09;100.00
2785;BME280;57944;48.722;9.316;2023-12-22T11:23:13;97073.72;;;7.01;100.00
2785;BME280;57944;48.722;9.316;2023-12-22T11:25:45;97065.91;;;6.96;100.00
2785;BME280;57944;48.722;9.316;2023-12-22T11:28:19;97056.16;;;6.86;100.00
2785;BME280;57944;48.722;9.316;2023-12-22T11:30:51;97050.28;;;6.79;100.00
2785;BME280;57944;48.722;9.316;2023-12-22T11:33:29;97045.81;;;6.81;100.00
2785;BME280;57944;48.722;9.316;2023-12-22T11:36:02;97046.41;;;6.83;100.00
2785;BME280;57944;48.722;9.316;2023-12-22T11:38:38;97040.31;;;6.64;100.00
2785;BME280;57944;48.722;9.316;2023-12-22T11:41:11;97032.13;;;6.62;100.00
2785;BME280;57944;48.722;9.316;2023-12-22T11:43:44;97032.66;;;6.44;100.00
2785;BME280;57944;48.722;9.316;2023-12-22T11:46:17;97027.59;;;6.44;100.00
2785;BME280;57944;48.722;9.316;2023-12-22T11:48:51;97032.22;;;6.34;100.00
2785;BME280;57944;48.722;9.316;2023-12-22T11:51:23;97020.53;;;6.33;100.00
2785;BME280;57944;48.722;9.316;2023-12-22T11:53:54;97022.69;;;6.36;100.00
2785;BME280;57944;48.722;9.316;2023-12-22T11:56:25;97014.72;;;6.39;100.00
2785;BME280;57944;48.722;9.316;2023-12-22T11:58:56;97008.09;;;6.38;100.00
2785;BME280;57944;48.722;9.316;2023-12-22T12:01:27;96994.28;;;6.41;100.00
2785;BME280;57944;48.722;9.316;2023-12-22T12:04:03;96986.28;;;6.37;100.00
2785;BME280;57944;48.722;9.316;2023-12-22T12:06:35;96980.81;;;6.27;100.00
2785;BME280;57944;48.722;9.316;2023-12-22T12:09:07;96978.13;;;6.35;100.00
2785;BME280;57944;48.722;9.316;2023-12-22T12:12:09;96973.66;;;6.44;100.00
2785;BME280;57944;48.722;9.316;2023-12-22T12:14:44;96972.94;;;6.63;100.00
2785;BME280;57944;48.722;9.316;2023-12-22T12:17:17;96969.44;;;6.58;100.00
2785;BME280;57944;48.722;9.316;2023-12-22T12:19:52;96955.56;;;6.54;100.00
2785;BME280;57944;48.722;9.316;2023-12-22T12:22:24;96959.47;;;6.56;100.00
2785;BME280;57944;48.722;9.316;2023-12-22T12:24:55;96961.78;;;6.51;100.00
2785;BME280;57944;48.722;9.316;2023-12-22T12:27:25;96965.88;;;6.45;100.00
2785;BME280;57944;48.722;9.316;2023-12-22T12:29:57;96957.13;;;6.41;100.00
2785;BME280;57944;48.722;9.316;2023-12-22T12:32:31;96947.56;;;6.43;100.00
2785;BME280;57944;48.722;9.316;2023-12-22T12:35:05;96944.66;;;6.46;100.00
2785;BME280;57944;48.722;9.316;2023-12-22T12:37:36;96947.38;;;6.45;100.00
2785;BME280;57944;48.722;9.316;2023-12-22T12:40:09;96935.72;;;6.51;100.00
2785;BME280;57944;48.722;9.316;2023-12-22T12:42:41;96929.50;;;6.46;100.00
2785;BME280;57944;48.722;9.316;2023-12-22T12:45:12;96928.34;;;6.56;100.00
2785;BME280;57944;48.722;9.316;2023-12-22T12:47:43;96933.41;;;6.56;100.00
2785;BME280;57944;48.722;9.316;2023-12-22T12:50:22;96928.34;;;6.62;100.00
2785;BME280;57944;48.722;9.316;2023-12-22T12:52:54;96925.63;;;6.64;100.00
2785;BME280;57944;48.722;9.316;2023-12-22T12:55:25;96924.44;;;6.60;100.00
2785;BME280;57944;48.722;9.316;2023-12-22T12:57:56;96930.09;;;6.62;100.00
2785;BME280;57944;48.722;9.316;2023-12-22T13:00:27;96927.56;;;6.55;100.00
2785;BME280;57944;48.722;9.316;2023-12-22T13:03:01;96929.13;;;6.69;100.00
2785;BME280;57944;48.722;9.316;2023-12-22T13:05:36;96916.28;;;6.64;100.00
2785;BME280;57944;48.722;9.316;2023-12-22T13:08:09;96927.00;;;6.66;100.00
2785;BME280;57944;48.722;9.316;2023-12-22T13:10:40;96922.09;;;6.65;100.00
2785;BME280;57944;48.722;9.316;2023-12-22T13:13:11;96921.50;;;6.63;100.00
2785;BME280;57944;48.722;9.316;2023-12-22T13:15:42;96914.34;;;6.66;100.00
2785;BME280;57944;48.722;9.316;2023-12-22T13:18:13;96919.78;;;6.70;100.00
2785;BME280;57944;48.722;9.316;2023-12-22T13:20:46;96921.31;;;6.71;100.00
2785;BME280;57944;48.722;9.316;2023-12-22T13:23:18;96914.31;;;6.73;100.00
2785;BME280;57944;48.722;9.316;2023-12-22T13:25:48;96917.25;;;6.77;100.00
2785;BME280;57944;48.722;9.316;2023-12-22T13:28:25;96924.88;;;6.83;100.00
2785;BME280;57944;48.722;9.316;2023-12-22T13:30:56;96922.94;;;6.85;100.00
2785;BME280;57944;48.722;9.316;2023-12-22T13:33:27;96912.00;;;6.91;100.00
2785;BME280;57944;48.722;9.316;2023-12-22T13:36:06;96917.63;;;6.93;100.00
2785;BME280;57944;48.722;9.316;2023-12-22T13:38:37;96922.50;;;7.02;100.00
2785;BME280;57944;48.722;9.316;2023-12-22T13:41:08;96923.69;;;7.06;100.00
2785;BME280;57944;48.722;9.316;2023-12-22T13:43:39;96913.78;;;7.11;100.00
2785;BME280;57944;48.722;9.316;2023-12-22T13:46:12;96918.03;;;7.17;100.00